sensor_id;sensor_type;location;lat;lon;timestamp;P1;durP1;ratioP1;P2;durP2;ratioP2
70725;SDS011;58304;53.104;6.022;2022-07-21T00:00:43;11.68;;;7.05;;
70725;SDS011;58304;53.104;6.022;2022-07-21T00:03:09;11.57;;;7.18;;
70725;SDS011;58304;53.104;6.022;2022-07-21T00:05:38;12.25;;;6.97;;
70725;SDS011;58304;53.104;6.022;2022-07-21T00:08:06;13.45;;;7.18;;
70725;SDS011;58304;53.104;6.022;2022-07-21T00:10:32;13.63;;;7.22;;
70725;SDS011;58304;53.104;6.022;2022-07-21T00:12:59;11.48;;;6.95;;
70725;SDS011;58304;53.104;6.022;2022-07-21T00:15:26;15.70;;;7.78;;
70725;SDS011;58304;53.104;6.022;2022-07-21T00:17:52;12.35;;;7.32;;
70725;SDS011;58304;53.104;6.022;2022-07-21T00:20:19;13.63;;;8.32;;
70725;SDS011;58304;53.104;6.022;2022-07-21T00:22:45;13.35;;;8.05;;
70725;SDS011;58304;53.104;6.022;2022-07-21T00:25:11;13.10;;;7.97;;
70725;SDS011;58304;53.104;6.022;2022-07-21T00:27:41;18.30;;;7.93;;
70725;SDS011;58304;53.104;6.022;2022-07-21T00:30:07;13.30;;;7.97;;
70725;SDS011;58304;53.104;6.022;2022-07-21T00:32:35;17.88;;;8.40;;
70725;SDS011;58304;53.104;6.022;2022-07-21T00:35:01;12.82;;;8.63;;
70725;SDS011;58304;53.104;6.022;2022-07-21T00:37:28;16.30;;;8.95;;
70725;SDS011;58304;53.104;6.022;2022-07-21T00:39:54;13.65;;;8.68;;
70725;SDS011;58304;53.104;6.022;2022-07-21T00:42:23;15.32;;;8.50;;
70725;SDS011;58304;53.104;6.022;2022-07-21T00:44:50;17.83;;;8.95;;
70725;SDS011;58304;53.104;6.022;2022-07-21T00:47:20;14.45;;;9.35;;
70725;SDS011;58304;53.104;6.022;2022-07-21T00:49:51;12.70;;;8.80;;
70725;SDS011;58304;53.104;6.022;2022-07-21T00:52:17;14.00;;;9.18;;
70725;SDS011;58304;53.104;6.022;2022-07-21T00:54:43;14.77;;;9.38;;
70725;SDS011;58304;53.104;6.022;2022-07-21T00:57:10;15.27;;;9.38;;
70725;SDS011;58304;53.104;6.022;2022-07-21T00:59:36;15.60;;;9.63;;
70725;SDS011;58304;53.104;6.022;2022-07-21T01:02:02;16.25;;;10.23;;
70725;SDS011;58304;53.104;6.022;2022-07-21T01:04:28;16.20;;;9.57;;
70725;SDS011;58304;53.104;6.022;2022-07-21T01:06:54;19.58;;;10.90;;
70725;SDS011;58304;53.104;6.022;2022-07-21T01:09:21;15.73;;;9.63;;
70725;SDS011;58304;53.104;6.022;2022-07-21T01:11:47;16.40;;;9.57;;
70725;SDS011;58304;53.104;6.022;2022-07-21T01:14:13;18.92;;;10.50;;
70725;SDS011;58304;53.104;6.022;2022-07-21T01:16:39;16.02;;;10.07;;
70725;SDS011;58304;53.104;6.022;2022-07-21T01:19:06;18.67;;;10.73;;
70725;SDS011;58304;53.104;6.022;2022-07-21T01:21:36;21.45;;;11.95;;
70725;SDS011;58304;53.104;6.022;2022-07-21T01:24:09;22.50;;;13.50;;
70725;SDS011;58304;53.104;6.022;2022-07-21T01:26:42;21.15;;;13.55;;
70725;SDS011;58304;53.104;6.022;2022-07-21T01:29:09;23.45;;;13.32;;
70725;SDS011;58304;53.104;6.022;2022-07-21T01:31:36;23.80;;;13.13;;
70725;SDS011;58304;53.104;6.022;2022-07-21T01:34:03;21.88;;;12.75;;
70725;SDS011;58304;53.104;6.022;2022-07-21T01:36:29;17.90;;;11.98;;
70725;SDS011;58304;53.104;6.022;2022-07-21T01:38:54;20.30;;;12.10;;
70725;SDS011;58304;53.104;6.022;2022-07-21T01:41:38;21.85;;;13.95;;
70725;SDS011;58304;53.104;6.022;2022-07-21T01:44:09;25.27;;;14.27;;
70725;SDS011;58304;53.104;6.022;2022-07-21T01:46:37;23.33;;;13.50;;
70725;SDS011;58304;53.104;6.022;2022-07-21T01:49:10;23.42;;;13.40;;
70725;SDS011;58304;53.104;6.022;2022-07-21T01:51:36;20.98;;;13.10;;
70725;SDS011;58304;53.104;6.022;2022-07-21T01:54:03;21.33;;;12.88;;
70725;SDS011;58304;53.104;6.022;2022-07-21T01:56:35;20.02;;;13.23;;
70725;SDS011;58304;53.104;6.022;2022-07-21T01:59:02;24.75;;;14.70;;
70725;SDS011;58304;53.104;6.022;2022-07-21T02:01:29;20.15;;;13.10;;
70725;SDS011;58304;53.104;6.022;2022-07-21T02:03:56;21.17;;;13.05;;
70725;SDS011;58304;53.104;6.022;2022-07-21T02:06:26;19.25;;;12.13;;
70725;SDS011;58304;53.104;6.022;2022-07-21T02:08:55;18.27;;;12.07;;
70725;SDS011;58304;53.104;6.022;2022-07-21T02:11:21;21.10;;;12.55;;
70725;SDS011;58304;53.104;6.022;2022-07-21T02:13:47;21.15;;;12.40;;
70725;SDS011;58304;53.104;6.022;2022-07-21T02:16:13;22.45;;;12.23;;
70725;SDS011;58304;53.104;6.022;2022-07-21T02:18:40;21.08;;;11.93;;
70725;SDS011;58304;53.104;6.022;2022-07-21T02:21:06;19.58;;;12.25;;
70725;SDS011;58304;53.104;6.022;2022-07-21T02:23:32;21.25;;;11.98;;
70725;SDS011;58304;53.104;6.022;2022-07-21T02:25:59;18.60;;;11.52;;
70725;SDS011;58304;53.104;6.022;2022-07-21T02:28:25;17.98;;;11.23;;
70725;SDS011;58304;53.104;6.022;2022-07-21T02:30:52;20.00;;;12.27;;
70725;SDS011;58304;53.104;6.022;2022-07-21T02:33:19;17.05;;;10.73;;
70725;SDS011;58304;53.104;6.022;2022-07-21T02:35:45;18.55;;;11.45;;
70725;SDS011;58304;53.104;6.022;2022-07-21T02:38:11;19.65;;;11.55;;
70725;SDS011;58304;53.104;6.022;2022-07-21T02:40:37;19.83;;;11.85;;
70725;SDS011;58304;53.104;6.022;2022-07-21T02:43:03;18.58;;;11.77;;
70725;SDS011;58304;53.104;6.022;2022-07-21T02:45:30;19.98;;;12.20;;
70725;SDS011;58304;53.104;6.022;2022-07-21T02:48:05;16.65;;;11.23;;
70725;SDS011;58304;53.104;6.022;2022-07-21T02:50:34;17.65;;;11.95;;
70725;SDS011;58304;53.104;6.022;2022-07-21T02:53:03;18.65;;;11.73;;
70725;SDS011;58304;53.104;6.022;2022-07-21T02:55:33;16.98;;;11.18;;
70725;SDS011;58304;53.104;6.022;2022-07-21T02:58:05;19.90;;;11.32;;
70725;SDS011;58304;53.104;6.022;2022-07-21T03:00:42;16.70;;;11.10;;
70725;SDS011;58304;53.104;6.022;2022-07-21T03:03:09;19.60;;;11.43;;
70725;SDS011;58304;53.104;6.022;2022-07-21T03:05:35;16.02;;;10.88;;
70725;SDS011;58304;53.104;6.022;2022-07-21T03:08:02;19.00;;;11.32;;
70725;SDS011;58304;53.104;6.022;2022-07-21T03:10:28;18.40;;;11.48;;
70725;SDS011;58304;53.104;6.022;2022-07-21T03:12:54;15.90;;;11.45;;
70725;SDS011;58304;53.104;6.022;2022-07-21T03:15:22;17.73;;;11.02;;
70725;SDS011;58304;53.104;6.022;2022-07-21T03:17:48;17.20;;;11.30;;
70725;SDS011;58304;53.104;6.022;2022-07-21T03:20:14;17.80;;;12.25;;
70725;SDS011;58304;53.104;6.022;2022-07-21T03:22:40;17.88;;;11.23;;
70725;SDS011;58304;53.104;6.022;2022-07-21T03:25:06;20.77;;;12.43;;
70725;SDS011;58304;53.104;6.022;2022-07-21T03:27:32;17.20;;;11.38;;
70725;SDS011;58304;53.104;6.022;2022-07-21T03:30:05;17.10;;;11.68;;
70725;SDS011;58304;53.104;6.022;2022-07-21T03:32:33;16.88;;;11.13;;
70725;SDS011;58304;53.104;6.022;2022-07-21T03:34:59;16.85;;;11.48;;
70725;SDS011;58304;53.104;6.022;2022-07-21T03:37:25;17.55;;;11.65;;
70725;SDS011;58304;53.104;6.022;2022-07-21T03:39:51;18.10;;;11.30;;
70725;SDS011;58304;53.104;6.022;2022-07-21T03:42:17;20.85;;;11.82;;
70725;SDS011;58304;53.104;6.022;2022-07-21T03:44:43;17.90;;;12.48;;
70725;SDS011;58304;53.104;6.022;2022-07-21T03:47:10;17.25;;;11.75;;
70725;SDS011;58304;53.104;6.022;2022-07-21T03:49:38;18.40;;;12.77;;
70725;SDS011;58304;53.104;6.022;2022-07-21T03:52:04;19.42;;;12.75;;
70725;SDS011;58304;53.104;6.022;2022-07-21T03:54:33;19.23;;;12.70;;
70725;SDS011;58304;53.104;6.022;2022-07-21T03:56:59;18.48;;;12.70;;
70725;SDS011;58304;53.104;6.022;2022-07-21T03:59:24;18.23;;;12.52;;
70725;SDS011;58304;53.104;6.022;2022-07-21T04:01:50;18.67;;;12.35;;
70725;SDS011;58304;53.104;6.022;2022-07-21T04:04:15;18.85;;;13.48;;
70725;SDS011;58304;53.104;6.022;2022-07-21T04:06:45;20.30;;;13.85;;
70725;SDS011;58304;53.104;6.022;2022-07-21T04:09:11;21.25;;;14.38;;
70725;SDS011;58304;53.104;6.022;2022-07-21T04:11:41;21.10;;;14.13;;
70725;SDS011;58304;53.104;6.022;2022-07-21T04:14:12;19.70;;;13.60;;
70725;SDS011;58304;53.104;6.022;2022-07-21T04:16:39;20.05;;;13.05;;
70725;SDS011;58304;53.104;6.022;2022-07-21T04:19:04;16.52;;;11.45;;
70725;SDS011;58304;53.104;6.022;2022-07-21T04:21:35;20.38;;;11.70;;
70725;SDS011;58304;53.104;6.022;2022-07-21T04:24:06;18.05;;;11.80;;
70725;SDS011;58304;53.104;6.022;2022-07-21T04:26:32;20.77;;;11.95;;
70725;SDS011;58304;53.104;6.022;2022-07-21T04:29:05;17.75;;;11.60;;
70725;SDS011;58304;53.104;6.022;2022-07-21T04:31:36;16.13;;;11.57;;
70725;SDS011;58304;53.104;6.022;2022-07-21T04:34:03;16.42;;;12.55;;
70725;SDS011;58304;53.104;6.022;2022-07-21T04:36:29;18.20;;;12.23;;
70725;SDS011;58304;53.104;6.022;2022-07-21T04:38:56;17.42;;;11.63;;
70725;SDS011;58304;53.104;6.022;2022-07-21T04:41:22;16.67;;;12.32;;
70725;SDS011;58304;53.104;6.022;2022-07-21T04:43:48;18.25;;;12.77;;
70725;SDS011;58304;53.104;6.022;2022-07-21T04:46:15;19.13;;;13.45;;
70725;SDS011;58304;53.104;6.022;2022-07-21T04:48:40;19.05;;;12.70;;
70725;SDS011;58304;53.104;6.022;2022-07-21T04:51:06;17.73;;;12.65;;
70725;SDS011;58304;53.104;6.022;2022-07-21T04:53:33;19.10;;;13.10;;
70725;SDS011;58304;53.104;6.022;2022-07-21T04:59:19;16.52;;;12.48;;
70725;SDS011;58304;53.104;6.022;2022-07-21T05:01:38;16.77;;;11.93;;
70725;SDS011;58304;53.104;6.022;2022-07-21T05:04:04;16.00;;;12.00;;
70725;SDS011;58304;53.104;6.022;2022-07-21T05:06:30;15.60;;;11.95;;
70725;SDS011;58304;53.104;6.022;2022-07-21T05:08:56;18.38;;;11.75;;
70725;SDS011;58304;53.104;6.022;2022-07-21T05:11:22;18.30;;;12.27;;
70725;SDS011;58304;53.104;6.022;2022-07-21T05:13:48;19.02;;;12.00;;
70725;SDS011;58304;53.104;6.022;2022-07-21T05:16:14;15.52;;;11.18;;
70725;SDS011;58304;53.104;6.022;2022-07-21T05:18:39;15.95;;;11.85;;
70725;SDS011;58304;53.104;6.022;2022-07-21T05:21:05;17.95;;;11.55;;
70725;SDS011;58304;53.104;6.022;2022-07-21T05:23:31;17.83;;;11.68;;
70725;SDS011;58304;53.104;6.022;2022-07-21T05:25:57;17.27;;;11.88;;
70725;SDS011;58304;53.104;6.022;2022-07-21T05:28:22;16.70;;;11.90;;
70725;SDS011;58304;53.104;6.022;2022-07-21T05:30:48;16.70;;;11.90;;
70725;SDS011;58304;53.104;6.022;2022-07-21T05:33:13;17.63;;;12.25;;
70725;SDS011;58304;53.104;6.022;2022-07-21T05:35:39;15.68;;;11.68;;
70725;SDS011;58304;53.104;6.022;2022-07-21T05:38:05;15.63;;;11.45;;
70725;SDS011;58304;53.104;6.022;2022-07-21T05:40:30;17.50;;;11.18;;
70725;SDS011;58304;53.104;6.022;2022-07-21T05:42:56;17.25;;;11.55;;
70725;SDS011;58304;53.104;6.022;2022-07-21T05:45:21;17.13;;;11.32;;
70725;SDS011;58304;53.104;6.022;2022-07-21T05:47:47;19.30;;;11.50;;
70725;SDS011;58304;53.104;6.022;2022-07-21T05:50:12;15.60;;;11.32;;
70725;SDS011;58304;53.104;6.022;2022-07-21T05:52:38;17.65;;;11.75;;
70725;SDS011;58304;53.104;6.022;2022-07-21T05:55:04;18.25;;;12.68;;
70725;SDS011;58304;53.104;6.022;2022-07-21T05:57:31;18.60;;;11.82;;
70725;SDS011;58304;53.104;6.022;2022-07-21T05:59:57;15.95;;;10.80;;
70725;SDS011;58304;53.104;6.022;2022-07-21T06:02:23;14.43;;;10.10;;
70725;SDS011;58304;53.104;6.022;2022-07-21T06:04:49;16.52;;;11.65;;
70725;SDS011;58304;53.104;6.022;2022-07-21T06:07:16;17.85;;;11.95;;
70725;SDS011;58304;53.104;6.022;2022-07-21T06:09:41;19.13;;;12.48;;
70725;SDS011;58304;53.104;6.022;2022-07-21T06:12:07;18.33;;;12.55;;
70725;SDS011;58304;53.104;6.022;2022-07-21T06:14:33;16.50;;;12.27;;
70725;SDS011;58304;53.104;6.022;2022-07-21T06:16:58;18.48;;;13.10;;
70725;SDS011;58304;53.104;6.022;2022-07-21T06:19:24;17.77;;;12.60;;
70725;SDS011;58304;53.104;6.022;2022-07-21T06:21:49;17.55;;;12.02;;
70725;SDS011;58304;53.104;6.022;2022-07-21T06:24:15;18.13;;;12.90;;
70725;SDS011;58304;53.104;6.022;2022-07-21T06:26:40;16.15;;;11.98;;
70725;SDS011;58304;53.104;6.022;2022-07-21T06:29:06;18.05;;;12.68;;
70725;SDS011;58304;53.104;6.022;2022-07-21T06:31:33;19.13;;;12.45;;
70725;SDS011;58304;53.104;6.022;2022-07-21T06:33:59;17.58;;;12.10;;
70725;SDS011;58304;53.104;6.022;2022-07-21T06:36:24;17.85;;;12.63;;
70725;SDS011;58304;53.104;6.022;2022-07-21T06:38:50;18.67;;;12.68;;
70725;SDS011;58304;53.104;6.022;2022-07-21T06:41:15;19.88;;;13.20;;
70725;SDS011;58304;53.104;6.022;2022-07-21T06:43:41;19.17;;;13.35;;
70725;SDS011;58304;53.104;6.022;2022-07-21T06:46:06;19.00;;;13.32;;
70725;SDS011;58304;53.104;6.022;2022-07-21T06:48:32;18.35;;;12.70;;
70725;SDS011;58304;53.104;6.022;2022-07-21T06:50:58;19.48;;;13.02;;
70725;SDS011;58304;53.104;6.022;2022-07-21T06:53:23;20.17;;;13.55;;
70725;SDS011;58304;53.104;6.022;2022-07-21T06:55:50;18.20;;;12.82;;
70725;SDS011;58304;53.104;6.022;2022-07-21T06:58:20;18.77;;;14.30;;
70725;SDS011;58304;53.104;6.022;2022-07-21T07:00:48;21.05;;;14.65;;
70725;SDS011;58304;53.104;6.022;2022-07-21T07:03:15;19.25;;;14.32;;
70725;SDS011;58304;53.104;6.022;2022-07-21T07:05:42;21.42;;;14.68;;
70725;SDS011;58304;53.104;6.022;2022-07-21T07:08:09;20.42;;;14.93;;
70725;SDS011;58304;53.104;6.022;2022-07-21T07:10:35;21.83;;;15.05;;
70725;SDS011;58304;53.104;6.022;2022-07-21T07:13:00;22.17;;;15.45;;
70725;SDS011;58304;53.104;6.022;2022-07-21T07:15:27;21.65;;;15.20;;
70725;SDS011;58304;53.104;6.022;2022-07-21T07:17:53;23.45;;;15.80;;
70725;SDS011;58304;53.104;6.022;2022-07-21T07:20:19;21.73;;;15.77;;
70725;SDS011;58304;53.104;6.022;2022-07-21T07:22:45;20.80;;;15.63;;
70725;SDS011;58304;53.104;6.022;2022-07-21T07:25:10;23.02;;;16.15;;
70725;SDS011;58304;53.104;6.022;2022-07-21T07:27:36;21.27;;;15.73;;
70725;SDS011;58304;53.104;6.022;2022-07-21T07:30:02;25.58;;;16.05;;
70725;SDS011;58304;53.104;6.022;2022-07-21T07:32:28;24.27;;;15.93;;
70725;SDS011;58304;53.104;6.022;2022-07-21T07:34:54;21.92;;;15.65;;
70725;SDS011;58304;53.104;6.022;2022-07-21T07:37:20;22.63;;;16.05;;
70725;SDS011;58304;53.104;6.022;2022-07-21T07:39:45;20.55;;;15.07;;
70725;SDS011;58304;53.104;6.022;2022-07-21T07:42:11;21.52;;;15.48;;
70725;SDS011;58304;53.104;6.022;2022-07-21T07:44:37;23.15;;;16.15;;
70725;SDS011;58304;53.104;6.022;2022-07-21T07:47:02;23.73;;;16.02;;
70725;SDS011;58304;53.104;6.022;2022-07-21T07:49:31;22.42;;;16.15;;
70725;SDS011;58304;53.104;6.022;2022-07-21T07:51:57;19.00;;;14.60;;
70725;SDS011;58304;53.104;6.022;2022-07-21T07:54:23;21.75;;;15.77;;
70725;SDS011;58304;53.104;6.022;2022-07-21T07:56:49;25.65;;;16.23;;
70725;SDS011;58304;53.104;6.022;2022-07-21T07:59:15;22.85;;;15.75;;
70725;SDS011;58304;53.104;6.022;2022-07-21T08:01:41;21.85;;;15.77;;
70725;SDS011;58304;53.104;6.022;2022-07-21T08:04:06;24.95;;;16.58;;
70725;SDS011;58304;53.104;6.022;2022-07-21T08:06:32;23.40;;;15.95;;
70725;SDS011;58304;53.104;6.022;2022-07-21T08:08:58;26.05;;;17.60;;
70725;SDS011;58304;53.104;6.022;2022-07-21T08:11:24;24.77;;;17.48;;
70725;SDS011;58304;53.104;6.022;2022-07-21T08:13:49;26.52;;;17.55;;
70725;SDS011;58304;53.104;6.022;2022-07-21T08:16:18;25.80;;;17.52;;
70725;SDS011;58304;53.104;6.022;2022-07-21T08:18:44;26.98;;;18.58;;
70725;SDS011;58304;53.104;6.022;2022-07-21T08:21:10;26.10;;;17.77;;
70725;SDS011;58304;53.104;6.022;2022-07-21T08:23:35;25.33;;;17.27;;
70725;SDS011;58304;53.104;6.022;2022-07-21T08:26:01;27.27;;;18.95;;
70725;SDS011;58304;53.104;6.022;2022-07-21T08:28:31;26.70;;;17.85;;
70725;SDS011;58304;53.104;6.022;2022-07-21T08:30:56;29.85;;;20.10;;
70725;SDS011;58304;53.104;6.022;2022-07-21T08:33:22;31.33;;;20.92;;
70725;SDS011;58304;53.104;6.022;2022-07-21T08:35:48;29.67;;;19.80;;
70725;SDS011;58304;53.104;6.022;2022-07-21T08:38:13;29.15;;;20.13;;
70725;SDS011;58304;53.104;6.022;2022-07-21T08:40:43;27.52;;;18.30;;
70725;SDS011;58304;53.104;6.022;2022-07-21T08:43:12;26.50;;;18.30;;
70725;SDS011;58304;53.104;6.022;2022-07-21T08:45:39;31.45;;;19.75;;
70725;SDS011;58304;53.104;6.022;2022-07-21T08:48:06;24.83;;;17.98;;
70725;SDS011;58304;53.104;6.022;2022-07-21T08:50:33;29.55;;;19.98;;
70725;SDS011;58304;53.104;6.022;2022-07-21T08:53:01;30.73;;;20.42;;
70725;SDS011;58304;53.104;6.022;2022-07-21T08:55:31;31.15;;;20.80;;
70725;SDS011;58304;53.104;6.022;2022-07-21T08:57:58;31.77;;;21.02;;
70725;SDS011;58304;53.104;6.022;2022-07-21T09:00:24;31.75;;;21.50;;
70725;SDS011;58304;53.104;6.022;2022-07-21T09:02:50;39.42;;;24.67;;
70725;SDS011;58304;53.104;6.022;2022-07-21T09:05:33;41.08;;;25.98;;
70725;SDS011;58304;53.104;6.022;2022-07-21T09:07:59;39.45;;;25.35;;
70725;SDS011;58304;53.104;6.022;2022-07-21T09:10:26;36.20;;;25.35;;
70725;SDS011;58304;53.104;6.022;2022-07-21T09:12:54;34.80;;;23.35;;
70725;SDS011;58304;53.104;6.022;2022-07-21T09:15:22;36.30;;;24.13;;
70725;SDS011;58304;53.104;6.022;2022-07-21T09:20:31;37.50;;;24.42;;
70725;SDS011;58304;53.104;6.022;2022-07-21T09:23:03;35.80;;;24.23;;
70725;SDS011;58304;53.104;6.022;2022-07-21T09:26:15;36.70;;;24.50;;
70725;SDS011;58304;53.104;6.022;2022-07-21T09:28:25;33.50;;;23.02;;
70725;SDS011;58304;53.104;6.022;2022-07-21T09:31:02;33.15;;;23.00;;
70725;SDS011;58304;53.104;6.022;2022-07-21T09:36:05;34.10;;;23.10;;
70725;SDS011;58304;53.104;6.022;2022-07-21T09:38:34;31.75;;;21.38;;
70725;SDS011;58304;53.104;6.022;2022-07-21T09:41:05;30.02;;;19.90;;
70725;SDS011;58304;53.104;6.022;2022-07-21T09:43:34;28.08;;;19.67;;
70725;SDS011;58304;53.104;6.022;2022-07-21T09:46:07;30.05;;;20.83;;
70725;SDS011;58304;53.104;6.022;2022-07-21T09:48:49;25.15;;;17.98;;
70725;SDS011;58304;53.104;6.022;2022-07-21T09:51:30;20.80;;;14.27;;
70725;SDS011;58304;53.104;6.022;2022-07-21T09:54:09;14.10;;;11.13;;
70725;SDS011;58304;53.104;6.022;2022-07-21T09:56:37;14.10;;;11.00;;
70725;SDS011;58304;53.104;6.022;2022-07-21T09:59:04;13.57;;;10.43;;
70725;SDS011;58304;53.104;6.022;2022-07-21T10:01:32;13.18;;;9.77;;
70725;SDS011;58304;53.104;6.022;2022-07-21T10:03:58;14.45;;;9.77;;
70725;SDS011;58304;53.104;6.022;2022-07-21T10:06:29;16.80;;;10.23;;
70725;SDS011;58304;53.104;6.022;2022-07-21T10:09:04;14.15;;;9.55;;
70725;SDS011;58304;53.104;6.022;2022-07-21T10:11:33;12.15;;;8.02;;
70725;SDS011;58304;53.104;6.022;2022-07-21T10:13:59;11.05;;;7.47;;
70725;SDS011;58304;53.104;6.022;2022-07-21T10:16:26;10.52;;;7.30;;
70725;SDS011;58304;53.104;6.022;2022-07-21T10:21:42;9.97;;;6.70;;
70725;SDS011;58304;53.104;6.022;2022-07-21T10:24:10;9.82;;;7.20;;
70725;SDS011;58304;53.104;6.022;2022-07-21T10:26:37;11.82;;;8.13;;
70725;SDS011;58304;53.104;6.022;2022-07-21T10:29:03;11.50;;;8.00;;
70725;SDS011;58304;53.104;6.022;2022-07-21T10:31:29;11.73;;;8.45;;
70725;SDS011;58304;53.104;6.022;2022-07-21T10:33:56;11.48;;;8.75;;
70725;SDS011;58304;53.104;6.022;2022-07-21T10:44:15;12.65;;;9.32;;
70725;SDS011;58304;53.104;6.022;2022-07-21T10:47:08;12.18;;;9.35;;
70725;SDS011;58304;53.104;6.022;2022-07-21T10:57:39;9.68;;;7.80;;
70725;SDS011;58304;53.104;6.022;2022-07-21T11:02:43;11.65;;;7.75;;
70725;SDS011;58304;53.104;6.022;2022-07-21T11:05:13;11.45;;;7.95;;
70725;SDS011;58304;53.104;6.022;2022-07-21T11:10:38;9.93;;;8.10;;
70725;SDS011;58304;53.104;6.022;2022-07-21T11:13:14;11.93;;;8.30;;
70725;SDS011;58304;53.104;6.022;2022-07-21T11:15:44;13.52;;;8.73;;
70725;SDS011;58304;53.104;6.022;2022-07-21T11:18:19;12.77;;;8.95;;
70725;SDS011;58304;53.104;6.022;2022-07-21T11:23:47;11.57;;;8.75;;
70725;SDS011;58304;53.104;6.022;2022-07-21T11:26:15;11.60;;;8.68;;
70725;SDS011;58304;53.104;6.022;2022-07-21T11:28:43;14.32;;;9.65;;
70725;SDS011;58304;53.104;6.022;2022-07-21T11:31:13;14.68;;;10.40;;
70725;SDS011;58304;53.104;6.022;2022-07-21T11:33:43;11.00;;;7.50;;
70725;SDS011;58304;53.104;6.022;2022-07-21T11:36:10;8.98;;;6.30;;
70725;SDS011;58304;53.104;6.022;2022-07-21T11:39:01;8.95;;;6.43;;
70725;SDS011;58304;53.104;6.022;2022-07-21T11:41:28;7.68;;;6.22;;
70725;SDS011;58304;53.104;6.022;2022-07-21T11:43:54;9.18;;;7.00;;
70725;SDS011;58304;53.104;6.022;2022-07-21T11:46:19;9.02;;;6.70;;
70725;SDS011;58304;53.104;6.022;2022-07-21T11:48:45;9.63;;;7.22;;
70725;SDS011;58304;53.104;6.022;2022-07-21T11:51:11;8.68;;;6.82;;
70725;SDS011;58304;53.104;6.022;2022-07-21T11:53:42;7.97;;;6.65;;
70725;SDS011;58304;53.104;6.022;2022-07-21T11:56:12;8.52;;;6.72;;
70725;SDS011;58304;53.104;6.022;2022-07-21T11:58:39;8.88;;;6.88;;
70725;SDS011;58304;53.104;6.022;2022-07-21T12:01:05;8.48;;;6.15;;
70725;SDS011;58304;53.104;6.022;2022-07-21T12:03:32;7.03;;;5.65;;
70725;SDS011;58304;53.104;6.022;2022-07-21T12:05:58;7.07;;;5.43;;
70725;SDS011;58304;53.104;6.022;2022-07-21T12:08:26;5.82;;;5.22;;
70725;SDS011;58304;53.104;6.022;2022-07-21T12:11:13;7.28;;;6.07;;
70725;SDS011;58304;53.104;6.022;2022-07-21T12:13:51;9.40;;;6.05;;
70725;SDS011;58304;53.104;6.022;2022-07-21T12:16:21;7.50;;;5.95;;
70725;SDS011;58304;53.104;6.022;2022-07-21T12:18:47;9.38;;;6.72;;
70725;SDS011;58304;53.104;6.022;2022-07-21T12:21:13;7.63;;;6.40;;
70725;SDS011;58304;53.104;6.022;2022-07-21T12:23:38;7.65;;;6.20;;
70725;SDS011;58304;53.104;6.022;2022-07-21T12:26:04;8.27;;;6.00;;
70725;SDS011;58304;53.104;6.022;2022-07-21T12:31:10;8.30;;;6.38;;
70725;SDS011;58304;53.104;6.022;2022-07-21T12:33:39;8.52;;;6.45;;
70725;SDS011;58304;53.104;6.022;2022-07-21T12:36:06;7.35;;;5.97;;
70725;SDS011;58304;53.104;6.022;2022-07-21T12:41:04;8.35;;;6.13;;
70725;SDS011;58304;53.104;6.022;2022-07-21T12:43:30;8.38;;;6.03;;
70725;SDS011;58304;53.104;6.022;2022-07-21T12:48:23;7.05;;;5.75;;
70725;SDS011;58304;53.104;6.022;2022-07-21T12:51:04;7.18;;;4.93;;
70725;SDS011;58304;53.104;6.022;2022-07-21T12:53:36;4.70;;;3.80;;
70725;SDS011;58304;53.104;6.022;2022-07-21T12:56:05;4.30;;;3.42;;
70725;SDS011;58304;53.104;6.022;2022-07-21T12:58:31;4.90;;;3.30;;
70725;SDS011;58304;53.104;6.022;2022-07-21T13:00:57;4.70;;;3.67;;
70725;SDS011;58304;53.104;6.022;2022-07-21T13:03:22;4.25;;;3.20;;
70725;SDS011;58304;53.104;6.022;2022-07-21T13:05:48;4.03;;;3.00;;
70725;SDS011;58304;53.104;6.022;2022-07-21T13:08:14;4.07;;;3.03;;
70725;SDS011;58304;53.104;6.022;2022-07-21T13:10:39;4.47;;;3.30;;
70725;SDS011;58304;53.104;6.022;2022-07-21T13:13:05;5.28;;;3.08;;
70725;SDS011;58304;53.104;6.022;2022-07-21T13:15:31;4.68;;;3.03;;
70725;SDS011;58304;53.104;6.022;2022-07-21T13:17:56;4.85;;;3.53;;
70725;SDS011;58304;53.104;6.022;2022-07-21T13:20:22;6.40;;;4.00;;
70725;SDS011;58304;53.104;6.022;2022-07-21T13:22:48;6.35;;;3.78;;
70725;SDS011;58304;53.104;6.022;2022-07-21T13:25:13;4.85;;;3.92;;
70725;SDS011;58304;53.104;6.022;2022-07-21T13:27:39;6.68;;;4.80;;
70725;SDS011;58304;53.104;6.022;2022-07-21T13:30:05;6.57;;;4.95;;
70725;SDS011;58304;53.104;6.022;2022-07-21T13:32:32;6.00;;;4.35;;
70725;SDS011;58304;53.104;6.022;2022-07-21T13:34:58;9.00;;;5.00;;
70725;SDS011;58304;53.104;6.022;2022-07-21T13:37:24;6.22;;;5.28;;
70725;SDS011;58304;53.104;6.022;2022-07-21T13:39:49;8.52;;;5.60;;
70725;SDS011;58304;53.104;6.022;2022-07-21T13:42:15;8.63;;;6.22;;
70725;SDS011;58304;53.104;6.022;2022-07-21T13:44:40;8.23;;;6.70;;
70725;SDS011;58304;53.104;6.022;2022-07-21T13:47:06;9.90;;;6.78;;
70725;SDS011;58304;53.104;6.022;2022-07-21T13:49:32;9.95;;;6.78;;
70725;SDS011;58304;53.104;6.022;2022-07-21T13:51:57;8.88;;;6.78;;
70725;SDS011;58304;53.104;6.022;2022-07-21T13:54:24;8.32;;;6.55;;
70725;SDS011;58304;53.104;6.022;2022-07-21T13:56:50;11.05;;;7.40;;
70725;SDS011;58304;53.104;6.022;2022-07-21T13:59:15;10.65;;;7.38;;
70725;SDS011;58304;53.104;6.022;2022-07-21T14:01:41;10.80;;;7.50;;
70725;SDS011;58304;53.104;6.022;2022-07-21T14:04:07;9.60;;;7.43;;
70725;SDS011;58304;53.104;6.022;2022-07-21T14:06:33;12.48;;;7.90;;
70725;SDS011;58304;53.104;6.022;2022-07-21T14:08:59;8.82;;;7.22;;
70725;SDS011;58304;53.104;6.022;2022-07-21T14:11:25;8.52;;;6.55;;
70725;SDS011;58304;53.104;6.022;2022-07-21T14:13:53;9.43;;;6.63;;
70725;SDS011;58304;53.104;6.022;2022-07-21T14:16:20;7.55;;;5.93;;
70725;SDS011;58304;53.104;6.022;2022-07-21T14:18:45;9.20;;;6.15;;
70725;SDS011;58304;53.104;6.022;2022-07-21T14:21:11;8.23;;;5.50;;
70725;SDS011;58304;53.104;6.022;2022-07-21T14:23:37;7.30;;;4.90;;
70725;SDS011;58304;53.104;6.022;2022-07-21T14:26:02;7.57;;;5.03;;
70725;SDS011;58304;53.104;6.022;2022-07-21T14:28:28;7.20;;;5.10;;
70725;SDS011;58304;53.104;6.022;2022-07-21T14:30:54;9.20;;;5.32;;
70725;SDS011;58304;53.104;6.022;2022-07-21T14:33:19;6.93;;;4.90;;
70725;SDS011;58304;53.104;6.022;2022-07-21T14:35:45;8.95;;;5.50;;
70725;SDS011;58304;53.104;6.022;2022-07-21T14:38:11;9.02;;;5.07;;
70725;SDS011;58304;53.104;6.022;2022-07-21T14:40:51;6.22;;;4.57;;
70725;SDS011;58304;53.104;6.022;2022-07-21T14:43:17;9.07;;;4.68;;
70725;SDS011;58304;53.104;6.022;2022-07-21T14:45:43;6.82;;;5.32;;
70725;SDS011;58304;53.104;6.022;2022-07-21T14:48:19;8.68;;;5.30;;
70725;SDS011;58304;53.104;6.022;2022-07-21T14:50:51;12.85;;;5.63;;
70725;SDS011;58304;53.104;6.022;2022-07-21T14:53:19;8.40;;;5.88;;
70725;SDS011;58304;53.104;6.022;2022-07-21T15:10:37;10.98;;;7.38;;
70725;SDS011;58304;53.104;6.022;2022-07-21T15:13:03;12.35;;;8.30;;
70725;SDS011;58304;53.104;6.022;2022-07-21T15:15:29;12.32;;;8.07;;
70725;SDS011;58304;53.104;6.022;2022-07-21T15:18:03;13.30;;;8.73;;
70725;SDS011;58304;53.104;6.022;2022-07-21T15:20:33;11.95;;;8.20;;
70725;SDS011;58304;53.104;6.022;2022-07-21T15:23:00;13.50;;;8.38;;
70725;SDS011;58304;53.104;6.022;2022-07-21T15:25:26;14.68;;;7.75;;
70725;SDS011;58304;53.104;6.022;2022-07-21T15:27:51;13.65;;;6.45;;